| time (UTC) | temp C | wind direction | speed KPH | gust KPH | rain 1hr cm | rain 24hr cm | rain mn cm | humidity % | barometer mb |
| 20260507080216 | 13 | 0 | 0.0 | 0.0 | 0.00 | 0.00 | 0.00 | 77 | 1006.2 |
| 20260507075403 | 13 | 0 | 0.0 | 0.0 | 0.00 | 0.00 | 0.00 | 75 | 1006.1 |
| 20260507074505 | 13 | 0 | 0.0 | 0.0 | 0.00 | 0.00 | 0.00 | 76 | 1005.9 |
| 20260507073603 | 13 | 0 | 0.0 | 0.0 | 0.00 | 0.00 | 0.00 | 74 | 1006.2 |
| 20260507072703 | 13 | 0 | 0.0 | 0.0 | 0.00 | 0.00 | 0.00 | 74 | 1006.0 |
| 20260507071803 | 12 | 330 | 0.0 | 1.6 | 0.00 | 0.00 | 0.00 | 76 | 1006.1 |
| 20260507070903 | 12 | 316 | 0.0 | 1.6 | 0.00 | 0.00 | 0.00 | 74 | 1006.1 |
| 20260507070007 | 12 | 0 | 0.0 | 0.0 | 0.00 | 0.00 | 0.00 | 75 | 1006.0 |
| 20260507065404 | 11 | 0 | 0.0 | 0.0 | 0.00 | 0.00 | 0.00 | 74 | 1006.0 |
| 20260507064503 | 11 | 347 | 0.0 | 1.6 | 0.00 | 0.00 | 0.00 | 75 | 1005.8 |
| 20260507063603 | 11 | 0 | 0.0 | 0.0 | 0.00 | 0.00 | 0.00 | 74 | 1005.9 |
| 20260507062703 | 11 | 0 | 0.0 | 0.0 | 0.00 | 0.00 | 0.00 | 75 | 1005.9 |
| 20260507061805 | 10 | 0 | 0.0 | 0.0 | 0.00 | 0.00 | 0.00 | 80 | 1005.8 |
| 20260507060903 | 10 | 0 | 0.0 | 0.0 | 0.00 | 0.00 | 0.00 | 83 | 1005.8 |
| 20260507060004 | 10 | 0 | 0.0 | 0.0 | 0.00 | 0.00 | 0.00 | 81 | 1005.6 |
| 20260507055403 | 10 | 0 | 0.0 | 0.0 | 0.00 | 0.00 | 0.00 | 80 | 1005.8 |
| 20260507054503 | 10 | 0 | 0.0 | 0.0 | 0.00 | 0.00 | 0.00 | 80 | 1005.6 |
| 20260507053603 | 9 | 0 | 0.0 | 0.0 | 0.00 | 0.00 | 0.00 | 80 | 1005.4 |
| 20260507052703 | 9 | 43 | 0.0 | 1.6 | 0.00 | 0.00 | 0.00 | 80 | 1005.2 |
| 20260507052017 | 9 | 0 | 0.0 | 0.0 | 0.00 | 0.00 | 0.00 | 82 | 1005.4 |
| 20260507050903 | 9 | 354 | 0.0 | 1.6 | 0.00 | 0.00 | 0.00 | 81 | 1004.8 |
| 20260507050005 | 9 | 0 | 0.0 | 0.0 | 0.00 | 0.00 | 0.00 | 80 | 1005.0 |
| 20260507045403 | 9 | 57 | 0.0 | 1.6 | 0.00 | 0.00 | 0.00 | 79 | 1004.8 |
| 20260507044718 | 9 | 53 | 0.0 | 1.6 | 0.00 | 0.00 | 0.00 | 80 | 1004.9 |
| 20260507043603 | 9 | 0 | 0.0 | 0.0 | 0.00 | 0.00 | 0.00 | 76 | 1004.7 |
| 20260507042705 | 10 | 0 | 0.0 | 0.0 | 0.00 | 0.00 | 0.00 | 80 | 1004.6 |
| 20260507041805 | 10 | 0 | 0.0 | 0.0 | 0.00 | 0.00 | 0.00 | 79 | 1004.4 |
| 20260507040903 | 10 | 82 | 0.0 | 1.6 | 0.00 | 0.00 | 0.00 | 76 | 1004.2 |
| 20260507040219 | 10 | 0 | 0.0 | 0.0 | 0.00 | 0.00 | 0.00 | 76 | 1004.2 |
| 20260507035403 | 10 | 0 | 0.0 | 0.0 | 0.00 | 0.00 | 0.00 | 76 | 1004.2 |
| 20260507034503 | 10 | 0 | 0.0 | 0.0 | 0.00 | 0.00 | 0.00 | 76 | 1004.1 |
| 20260507033605 | 10 | 0 | 0.0 | 0.0 | 0.00 | 0.05 | 0.00 | 76 | 1004.2 |
| 20260507032704 | 10 | 0 | 0.0 | 0.0 | 0.00 | 0.08 | 0.00 | 75 | 1004.2 |
| 20260507031803 | 10 | 0 | 0.0 | 0.0 | 0.00 | 0.13 | 0.00 | 75 | 1004.2 |
| 20260507030903 | 10 | 0 | 0.0 | 0.0 | 0.00 | 0.18 | 0.00 | 74 | 1004.1 |
| 20260507030003 | 11 | 0 | 0.0 | 0.0 | 0.00 | 0.20 | 0.00 | 76 | 1004.2 |
| 20260507025618 | 11 | 0 | 0.0 | 0.0 | 0.00 | 0.23 | 0.00 | 78 | 1004.0 |
| 20260507024505 | 10 | 224 | 0.0 | 1.6 | 0.00 | 0.28 | 0.00 | 78 | 1004.1 |
| 20260507023603 | 10 | 315 | 0.0 | 1.6 | 0.00 | 0.36 | 0.00 | 80 | 1004.3 |
| 20260507022703 | 10 | 0 | 0.0 | 0.0 | 0.00 | 0.38 | 0.00 | 82 | 1004.2 |
| 20260507021805 | 10 | 0 | 0.0 | 0.0 | 0.00 | 0.46 | 0.00 | 80 | 1004.1 |
| 20260507020903 | 10 | 0 | 0.0 | 0.0 | 0.00 | 0.46 | 0.00 | 79 | 1004.1 |
| 20260507020003 | 10 | 0 | 0.0 | 0.0 | 0.00 | 0.46 | 0.00 | 80 | 1004.1 |
| 20260507015403 | 10 | 0 | 0.0 | 0.0 | 0.00 | 0.46 | 0.00 | 77 | 1004.2 |
| 20260507014505 | 10 | 54 | 0.0 | 1.6 | 0.00 | 0.46 | 0.00 | 78 | 1004.0 |
| 20260507013603 | 10 | 0 | 0.0 | 0.0 | 0.00 | 0.46 | 0.00 | 77 | 1003.9 |
| 20260507012705 | 10 | 232 | 0.0 | 1.6 | 0.00 | 0.46 | 0.00 | 78 | 1004.0 |
| 20260507011803 | 10 | 23 | 0.0 | 1.6 | 0.00 | 0.46 | 0.00 | 80 | 1004.1 |
| 20260507010903 | 10 | 329 | 0.0 | 1.6 | 0.00 | 0.46 | 0.00 | 83 | 1003.8 |
| 20260507010003 | 10 | 356 | 0.0 | 1.6 | 0.00 | 0.46 | 0.00 | 80 | 1004.0 |
| 20260507005404 | 10 | 91 | 0.0 | 1.6 | 0.00 | 0.46 | 0.00 | 78 | 1004.0 |
| 20260507004503 | 10 | 0 | 0.0 | 0.0 | 0.00 | 0.46 | 0.00 | 80 | 1004.0 |
| 20260507003603 | 10 | 0 | 0.0 | 0.0 | 0.00 | 0.46 | 0.00 | 81 | 1004.1 |
| 20260507002919 | 10 | 341 | 0.0 | 1.6 | 0.00 | 0.48 | 0.00 | 81 | 1004.2 |
| 20260507001803 | 11 | 0 | 0.0 | 0.0 | 0.00 | 0.48 | 0.00 | 78 | 1004.0 |
| 20260507000903 | 11 | 10 | 0.0 | 1.6 | 0.00 | 0.48 | 0.00 | 79 | 1004.0 |
| 20260507000219 | 11 | 358 | 0.0 | 1.6 | 0.00 | 0.48 | 0.00 | 82 | 1003.8 |
| 20260506235617 | 11 | 0 | 0.0 | 0.0 | 0.00 | 0.51 | 0.00 | 79 | 1003.8 |
| 20260506234716 | 11 | 0 | 0.0 | 0.0 | 0.00 | 0.51 | 0.00 | 84 | 1003.9 |
| 20260506233603 | 11 | 0 | 0.0 | 0.0 | 0.00 | 0.53 | 0.00 | 85 | 1003.8 |
| 20260506232703 | 11 | 335 | 0.0 | 4.8 | 0.00 | 0.53 | 0.00 | 85 | 1003.6 |
| 20260506231803 | 11 | 357 | 0.0 | 3.2 | 0.00 | 0.53 | 0.00 | 84 | 1003.7 |
| 20260506230903 | 11 | 349 | 0.0 | 4.8 | 0.00 | 0.53 | 0.00 | 82 | 1003.8 |
| 20260506230003 | 12 | 37 | 0.0 | 4.8 | 0.00 | 0.53 | 0.00 | 82 | 1003.4 |
| 20260506225403 | 11 | 357 | 1.6 | 9.7 | 0.00 | 0.53 | 0.00 | 82 | 1003.6 |
| 20260506224503 | 12 | 357 | 1.6 | 6.4 | 0.00 | 0.53 | 0.00 | 82 | 1003.5 |
| 20260506223603 | 12 | 355 | 1.6 | 6.4 | 0.00 | 0.53 | 0.00 | 83 | 1003.6 |
| 20260506222919 | 12 | 355 | 1.6 | 6.4 | 0.00 | 0.53 | 0.00 | 83 | 1003.4 |
| 20260506221805 | 12 | 353 | 0.0 | 4.8 | 0.00 | 0.53 | 0.00 | 83 | 1003.4 |
| 20260506220903 | 13 | 6 | 0.0 | 1.6 | 0.00 | 0.53 | 0.00 | 83 | 1003.5 |
| 20260506220005 | 13 | 354 | 1.6 | 4.8 | 0.00 | 0.53 | 0.00 | 83 | 1003.3 |
| 20260506215403 | 13 | 340 | 1.6 | 4.8 | 0.00 | 0.53 | 0.53 | 83 | 1003.2 |
| 20260506214503 | 12 | 5 | 0.0 | 3.2 | 0.00 | 0.53 | 0.53 | 85 | 1003.2 |
| 20260506213605 | 13 | 295 | 0.0 | 1.6 | 0.00 | 0.53 | 0.53 | 85 | 1002.9 |
| 20260506212703 | 13 | 66 | 0.0 | 1.6 | 0.00 | 0.53 | 0.53 | 84 | 1002.8 |
| 20260506211803 | 13 | 74 | 0.0 | 6.4 | 0.00 | 0.53 | 0.53 | 84 | 1002.9 |
| 20260506210903 | 13 | 73 | 0.0 | 1.6 | 0.00 | 0.53 | 0.53 | 84 | 1002.7 |
| 20260506210004 | 13 | 355 | 0.0 | 1.6 | 0.00 | 0.53 | 0.53 | 84 | 1002.5 |
| 20260506205403 | 13 | 358 | 0.0 | 1.6 | 0.00 | 0.53 | 0.53 | 83 | 1002.7 |
| 20260506204503 | 13 | 330 | 0.0 | 3.2 | 0.00 | 0.53 | 0.53 | 83 | 1002.6 |
| 20260506203603 | 13 | 38 | 0.0 | 3.2 | 0.00 | 0.53 | 0.53 | 82 | 1002.4 |
| 20260506202703 | 13 | 0 | 0.0 | 0.0 | 0.00 | 0.53 | 0.53 | 82 | 1002.2 |
| 20260506201805 | 13 | 46 | 0.0 | 1.6 | 0.00 | 0.53 | 0.53 | 81 | 1002.4 |
| 20260506200903 | 14 | 353 | 0.0 | 3.2 | 0.00 | 0.53 | 0.53 | 78 | 1002.1 |
| 20260506200005 | 14 | 212 | 0.0 | 3.2 | 0.00 | 0.53 | 0.53 | 77 | 1001.9 |
| 20260506195619 | 14 | 255 | 0.0 | 4.8 | 0.00 | 0.53 | 0.53 | 77 | 1002.0 |
| 20260506194506 | 14 | 358 | 0.0 | 1.6 | 0.00 | 0.53 | 0.53 | 81 | 1001.6 |
| 20260506193605 | 14 | 357 | 0.0 | 3.2 | 0.00 | 0.53 | 0.53 | 79 | 1001.2 |
| 20260506192703 | 15 | 323 | 0.0 | 3.2 | 0.00 | 0.53 | 0.53 | 78 | 1001.0 |
| 20260506191803 | 14 | 38 | 0.0 | 3.2 | 0.00 | 0.53 | 0.53 | 79 | 1000.9 |
| 20260506190903 | 15 | 246 | 0.0 | 1.6 | 0.00 | 0.53 | 0.53 | 78 | 1000.6 |
| 20260506185403 | 15 | 184 | 0.0 | 1.6 | 0.00 | 0.53 | 0.53 | 74 | 1000.5 |
| 20260506184503 | 16 | 0 | 0.0 | 0.0 | 0.00 | 0.53 | 0.53 | 75 | 1000.2 |
| 20260506183604 | 16 | 167 | 0.0 | 1.6 | 0.00 | 0.53 | 0.53 | 75 | 1000.1 |
| 20260506182704 | 15 | 346 | 0.0 | 1.6 | 0.00 | 0.53 | 0.53 | 80 | 999.8 |
| 20260506182019 | 16 | 49 | 0.0 | 1.6 | 0.00 | 0.53 | 0.53 | 78 | 999.6 |
| 20260506180903 | 17 | 304 | 0.0 | 1.6 | 0.00 | 0.53 | 0.53 | 75 | 999.6 |
| 20260506180217 | 17 | 263 | 0.0 | 3.2 | 0.00 | 0.53 | 0.53 | 69 | 999.3 |
| 20260506175403 | 17 | 107 | 0.0 | 6.4 | 0.00 | 0.53 | 0.53 | 66 | 999.0 |
| 20260506174504 | 17 | 345 | 0.0 | 1.6 | 0.00 | 0.53 | 0.53 | 65 | 999.0 |
| 20260506173603 | 17 | 338 | 0.0 | 3.2 | 0.00 | 0.53 | 0.53 | 67 | 998.9 |
| 20260506172705 | 17 | 354 | 0.0 | 3.2 | 0.00 | 0.53 | 0.53 | 67 | 998.6 |
| 20260506172018 | 17 | 351 | 0.0 | 3.2 | 0.00 | 0.53 | 0.53 | 71 | 998.6 |
| 20260506171118 | 18 | 347 | 0.0 | 6.4 | 0.00 | 0.53 | 0.53 | 70 | 998.6 |
| 20260506170217 | 18 | 350 | 1.6 | 6.4 | 0.00 | 0.53 | 0.53 | 64 | 998.5 |
| 20260506165403 | 18 | 360 | 0.0 | 3.2 | 0.00 | 0.53 | 0.53 | 68 | 998.6 |
| 20260506164503 | 18 | 0 | 0.0 | 0.0 | 0.00 | 0.53 | 0.53 | 67 | 998.5 |
| 20260506163603 | 18 | 50 | 0.0 | 1.6 | 0.00 | 0.53 | 0.53 | 68 | 998.6 |
| 20260506162703 | 18 | 119 | 0.0 | 3.2 | 0.00 | 0.53 | 0.53 | 66 | 998.4 |
| 20260506161803 | 18 | 294 | 0.0 | 4.8 | 0.00 | 0.53 | 0.53 | 66 | 998.6 |
| 20260506161117 | 19 | 271 | 1.6 | 4.8 | 0.00 | 0.53 | 0.53 | 66 | 998.4 |
| 20260506160217 | 18 | 68 | 0.0 | 3.2 | 0.00 | 0.53 | 0.53 | 66 | 998.3 |
| 20260506155403 | 19 | 90 | 0.0 | 9.7 | 0.00 | 0.53 | 0.53 | 65 | 998.5 |
| 20260506154505 | 19 | 263 | 1.6 | 4.8 | 0.00 | 0.53 | 0.53 | 62 | 998.3 |
| 20260506153603 | 19 | 251 | 0.0 | 4.8 | 0.00 | 0.53 | 0.53 | 63 | 998.3 |
| 20260506152703 | 19 | 0 | 0.0 | 0.0 | 0.00 | 0.53 | 0.53 | 64 | 998.4 |
| 20260506151803 | 18 | 165 | 1.6 | 6.4 | 0.00 | 0.53 | 0.53 | 63 | 998.4 |
| 20260506150903 | 19 | 292 | 0.0 | 3.2 | 0.00 | 0.53 | 0.53 | 62 | 998.3 |
| 20260506150003 | 18 | 206 | 0.0 | 4.8 | 0.00 | 0.53 | 0.53 | 63 | 998.5 |
| 20260506145403 | 18 | 201 | 0.0 | 4.8 | 0.00 | 0.53 | 0.53 | 66 | 998.3 |
| 20260506144503 | 18 | 155 | 0.0 | 1.6 | 0.00 | 0.53 | 0.53 | 62 | 998.5 |
| 20260506143605 | 20 | 222 | 0.0 | 4.8 | 0.00 | 0.53 | 0.53 | 60 | 998.5 |
| 20260506142703 | 19 | 165 | 0.0 | 1.6 | 0.00 | 0.53 | 0.53 | 62 | 998.5 |
| 20260506142017 | 18 | 0 | 0.0 | 0.0 | 0.00 | 0.53 | 0.53 | 65 | 998.4 |
| 20260506141117 | 19 | 344 | 0.0 | 1.6 | 0.00 | 0.53 | 0.53 | 65 | 998.6 |
| 20260506140004 | 18 | 0 | 0.0 | 0.0 | 0.00 | 0.53 | 0.53 | 63 | 998.8 |
| 20260506135620 | 18 | 156 | 0.0 | 4.8 | 0.00 | 0.53 | 0.53 | 62 | 998.8 |
| 20260506134503 | 18 | 201 | 1.6 | 9.7 | 0.00 | 0.53 | 0.53 | 61 | 998.9 |
| 20260506133603 | 19 | 194 | 0.0 | 4.8 | 0.00 | 0.53 | 0.53 | 62 | 998.9 |
| 20260506132703 | 17 | 0 | 0.0 | 0.0 | 0.00 | 0.53 | 0.53 | 71 | 999.0 |
| 20260506132017 | 17 | 0 | 0.0 | 0.0 | 0.00 | 0.53 | 0.53 | 69 | 999.1 |
| 20260506130903 | 17 | 172 | 0.0 | 1.6 | 0.00 | 0.53 | 0.53 | 68 | 999.2 |
| 20260506130004 | 18 | 211 | 1.6 | 9.7 | 0.00 | 0.53 | 0.53 | 65 | 999.1 |
| 20260506125619 | 18 | 198 | 0.0 | 9.7 | 0.00 | 0.53 | 0.53 | 63 | 999.2 |
| 20260506124503 | 19 | 172 | 1.6 | 11.3 | 0.00 | 0.53 | 0.53 | 61 | 999.0 |
| 20260506123818 | 18 | 211 | 1.6 | 11.3 | 0.00 | 0.53 | 0.53 | 62 | 998.9 |
| 20260506122703 | 18 | 160 | 1.6 | 11.3 | 0.00 | 0.53 | 0.53 | 65 | 999.0 |
| 20260506121803 | 18 | 155 | 0.0 | 9.7 | 0.00 | 0.53 | 0.53 | 66 | 998.9 |
| 20260506120903 | 18 | 168 | 1.6 | 6.4 | 0.00 | 0.53 | 0.53 | 67 | 999.0 |
| 20260506120003 | 18 | 179 | 1.6 | 9.7 | 0.00 | 0.53 | 0.53 | 67 | 999.1 |
| 20260506115403 | 17 | 177 | 3.2 | 11.3 | 0.00 | 0.53 | 0.53 | 68 | 999.0 |
| 20260506114503 | 18 | 184 | 1.6 | 9.7 | 0.00 | 0.53 | 0.53 | 67 | 999.0 |
| 20260506113604 | 18 | 196 | 1.6 | 11.3 | 0.00 | 0.53 | 0.53 | 67 | 999.3 |
| 20260506112703 | 18 | 358 | 0.0 | 3.2 | 0.00 | 0.53 | 0.53 | 68 | 999.1 |
| 20260506111803 | 18 | 108 | 0.0 | 6.4 | 0.00 | 0.53 | 0.53 | 67 | 999.0 |
| 20260506110905 | 17 | 120 | 0.0 | 6.4 | 0.00 | 0.53 | 0.53 | 70 | 999.2 |
| 20260506110003 | 17 | 109 | 0.0 | 6.4 | 0.00 | 0.53 | 0.53 | 70 | 999.2 |
| 20260506105405 | 16 | 124 | 0.0 | 1.6 | 0.00 | 0.53 | 0.53 | 72 | 999.3 |
| 20260506104503 | 16 | 151 | 0.0 | 1.6 | 0.00 | 0.53 | 0.53 | 72 | 999.5 |
| 20260506103603 | 16 | 220 | 0.0 | 4.8 | 0.00 | 0.53 | 0.53 | 73 | 999.7 |
| 20260506102703 | 16 | 355 | 0.0 | 4.8 | 0.00 | 0.53 | 0.53 | 72 | 999.9 |
| 20260506101805 | 16 | 137 | 0.0 | 6.4 | 0.00 | 0.53 | 0.53 | 76 | 999.8 |
| 20260506100903 | 16 | 173 | 0.0 | 3.2 | 0.00 | 0.53 | 0.53 | 75 | 999.9 |
| 20260506100004 | 15 | 160 | 0.0 | 1.6 | 0.00 | 0.53 | 0.53 | 77 | 999.9 |
| 20260506095404 | 16 | 180 | 0.0 | 9.7 | 0.00 | 0.53 | 0.53 | 77 | 1000.0 |
| 20260506094717 | 15 | 172 | 1.6 | 9.7 | 0.00 | 0.53 | 0.53 | 78 | 1000.0 |
| 20260506093817 | 15 | 179 | 0.0 | 1.6 | 0.00 | 0.53 | 0.53 | 80 | 1000.0 |
| 20260506092705 | 14 | 206 | 0.0 | 4.8 | 0.00 | 0.53 | 0.53 | 81 | 1000.1 |
| 20260506091803 | 14 | 144 | 0.0 | 1.6 | 0.00 | 0.53 | 0.53 | 81 | 1000.2 |
| 20260506090905 | 13 | 0 | 0.0 | 0.0 | 0.00 | 0.53 | 0.53 | 80 | 1000.1 |
| 20260506090003 | 14 | 0 | 0.0 | 0.0 | 0.00 | 0.53 | 0.53 | 82 | 1000.1 |
| 20260506085403 | 13 | 221 | 0.0 | 3.2 | 0.00 | 0.53 | 0.53 | 82 | 999.9 |
| 20260506084503 | 13 | 0 | 0.0 | 0.0 | 0.00 | 0.53 | 0.53 | 82 | 999.9 |
| 20260506083603 | 13 | 0 | 0.0 | 0.0 | 0.00 | 0.53 | 0.53 | 83 | 1000.1 |
| 20260506082703 | 13 | 0 | 0.0 | 0.0 | 0.00 | 0.53 | 0.53 | 84 | 999.9 |
| 20260506081803 | 13 | 0 | 0.0 | 0.0 | 0.00 | 0.53 | 0.53 | 84 | 999.8 |
| 20260506080903 | 13 | 0 | 0.0 | 0.0 | 0.00 | 0.53 | 0.53 | 84 | 999.8 |